createdAt,value
2023-04-15T00:00:16.853Z,1004.67
2023-04-15T00:01:16.858Z,1004.69
2023-04-15T00:02:16.887Z,1004.69
2023-04-15T00:03:17.075Z,1004.70
2023-04-15T00:04:16.843Z,1004.66
2023-04-15T00:05:16.800Z,1004.66
2023-04-15T00:06:16.771Z,1004.64
2023-04-15T00:07:16.763Z,1004.70
2023-04-15T00:08:16.770Z,1004.65
2023-04-15T00:09:16.739Z,1004.62
2023-04-15T00:10:16.731Z,1004.63
2023-04-15T00:11:16.708Z,1004.62
2023-04-15T00:12:16.692Z,1004.63
2023-04-15T00:13:16.714Z,1004.62
2023-04-15T00:14:16.673Z,1004.65
2023-04-15T00:15:16.663Z,1004.62
2023-04-15T00:16:16.650Z,1004.65
2023-04-15T00:17:16.632Z,1004.65
2023-04-15T00:18:16.631Z,1004.63
2023-04-15T00:19:16.624Z,1004.70
2023-04-15T00:20:16.592Z,1004.67
2023-04-15T00:21:16.589Z,1004.65
2023-04-15T00:22:16.573Z,1004.67
2023-04-15T00:23:16.576Z,1004.62
2023-04-15T00:24:16.531Z,1004.65
2023-04-15T00:25:16.524Z,1004.66
2023-04-15T00:26:16.514Z,1004.66
2023-04-15T00:27:16.513Z,1004.62
2023-04-15T00:28:16.485Z,1004.66
2023-04-15T00:29:16.486Z,1004.66
2023-04-15T00:30:16.453Z,1004.64
2023-04-15T00:31:16.547Z,1004.63
2023-04-15T00:32:16.458Z,1004.64
2023-04-15T00:33:16.470Z,1004.60
2023-04-15T00:34:16.404Z,1004.62
2023-04-15T00:35:16.402Z,1004.65
2023-04-15T00:36:16.425Z,1004.66
2023-04-15T00:37:16.386Z,1004.64
2023-04-15T00:38:16.344Z,1004.63
2023-04-15T00:39:16.357Z,1004.64
2023-04-15T00:40:16.326Z,1004.66
2023-04-15T00:41:16.319Z,1004.66
2023-04-15T00:42:16.339Z,1004.67
2023-04-15T00:43:16.300Z,1004.63
2023-04-15T00:44:16.294Z,1004.67
2023-04-15T00:45:16.276Z,1004.66
2023-04-15T00:46:16.288Z,1004.71
2023-04-15T00:47:16.280Z,1004.69
2023-04-15T00:48:16.219Z,1004.74
2023-04-15T00:49:16.216Z,1004.72
2023-04-15T00:50:16.204Z,1004.69
2023-04-15T00:51:16.193Z,1004.68
2023-04-15T00:52:16.184Z,1004.68
2023-04-15T00:53:16.164Z,1004.71
2023-04-15T00:54:16.145Z,1004.72
2023-04-15T00:55:16.138Z,1004.72
2023-04-15T00:56:16.120Z,1004.76
2023-04-15T00:57:16.160Z,1004.70
2023-04-15T00:58:16.086Z,1004.70
2023-04-15T00:59:16.080Z,1004.76
2023-04-15T01:00:16.081Z,1004.76
2023-04-15T01:01:16.121Z,1004.71
2023-04-15T01:02:16.212Z,1004.77
2023-04-15T01:03:16.269Z,1004.72
2023-04-15T01:04:16.068Z,1004.69
2023-04-15T01:05:16.008Z,1004.73
2023-04-15T01:06:15.987Z,1004.70
2023-04-15T01:07:15.979Z,1004.69
2023-04-15T01:08:15.975Z,1004.70
2023-04-15T01:09:15.950Z,1004.67
2023-04-15T01:10:15.932Z,1004.68
2023-04-15T01:11:15.918Z,1004.64
2023-04-15T01:12:15.907Z,1004.71
2023-04-15T01:13:15.923Z,1004.65
2023-04-15T01:14:15.878Z,1004.64
2023-04-15T01:15:15.867Z,1004.65
2023-04-15T01:16:15.853Z,1004.64
2023-04-15T01:17:15.834Z,1004.67
2023-04-15T01:18:15.846Z,1004.61
2023-04-15T01:19:15.825Z,1004.60
2023-04-15T01:20:15.794Z,1004.65
2023-04-15T01:21:15.799Z,1004.63
2023-04-15T01:22:15.791Z,1004.65
2023-04-15T01:23:15.805Z,1004.63
2023-04-15T01:24:15.753Z,1004.71
2023-04-15T01:25:15.745Z,1004.62
2023-04-15T01:26:15.735Z,1004.65
2023-04-15T01:27:15.742Z,1004.66
2023-04-15T01:28:15.699Z,1004.65
2023-04-15T01:29:15.696Z,1004.63
2023-04-15T01:30:15.700Z,1004.64
2023-04-15T01:31:15.696Z,1004.65
2023-04-15T01:32:15.653Z,1004.64
2023-04-15T01:33:15.636Z,1004.63
2023-04-15T01:34:15.634Z,1004.65
2023-04-15T01:35:15.624Z,1004.65
2023-04-15T01:36:15.618Z,1004.72
2023-04-15T01:37:15.590Z,1004.68
2023-04-15T01:38:15.630Z,1004.69
2023-04-15T01:39:15.549Z,1004.69
2023-04-15T01:40:15.563Z,1004.72
2023-04-15T01:41:15.544Z,1004.73
2023-04-15T01:42:15.529Z,1004.72
2023-04-15T01:43:15.525Z,1004.72
2023-04-15T01:44:15.489Z,1004.70
2023-04-15T01:45:15.471Z,1004.69
2023-04-15T01:46:15.495Z,1004.68
2023-04-15T01:47:15.489Z,1004.69
2023-04-15T01:48:15.431Z,1004.70
2023-04-15T01:49:15.425Z,1004.65
2023-04-15T01:50:15.404Z,1004.70
2023-04-15T01:51:15.403Z,1004.69
2023-04-15T01:52:15.392Z,1004.67
2023-04-15T01:53:15.405Z,1004.67
2023-04-15T01:54:15.354Z,1004.61
2023-04-15T01:55:15.349Z,1004.66
2023-04-15T01:56:16.838Z,1004.63
2023-04-15T01:57:15.337Z,1004.66
2023-04-15T01:58:15.322Z,1004.67
2023-04-15T01:59:15.328Z,1004.62
2023-04-15T02:00:15.275Z,1004.63
2023-04-15T02:01:15.307Z,1004.65
2023-04-15T02:02:15.296Z,1004.64
2023-04-15T02:03:15.335Z,1004.65
2023-04-15T02:04:15.226Z,1004.65
2023-04-15T02:05:15.226Z,1004.67
2023-04-15T02:06:15.202Z,1004.64
2023-04-15T02:07:15.203Z,1004.63
2023-04-15T02:08:15.219Z,1004.65
2023-04-15T02:09:15.171Z,1004.66
2023-04-15T02:10:15.158Z,1004.71
2023-04-15T02:11:15.137Z,1004.71
2023-04-15T02:12:15.136Z,1004.74
2023-04-15T02:13:15.109Z,1004.74
2023-04-15T02:14:15.107Z,1004.75
2023-04-15T02:15:15.088Z,1004.79
2023-04-15T02:16:15.085Z,1004.79
2023-04-15T02:17:15.091Z,1004.78
2023-04-15T02:18:15.036Z,1004.82
2023-04-15T02:19:15.040Z,1004.79
2023-04-15T02:20:15.016Z,1004.80
2023-04-15T02:21:15.051Z,1004.84
2023-04-15T02:22:15.009Z,1004.80
2023-04-15T02:23:14.989Z,1004.83
2023-04-15T02:24:14.982Z,1004.84
2023-04-15T02:25:14.960Z,1004.83
2023-04-15T02:26:14.938Z,1004.84
2023-04-15T02:27:14.955Z,1004.89
2023-04-15T02:28:14.917Z,1004.90
2023-04-15T02:29:14.917Z,1004.91
2023-04-15T02:30:14.892Z,1004.92
2023-04-15T02:31:14.929Z,1004.93
2023-04-15T02:32:14.888Z,1004.95
2023-04-15T02:33:14.860Z,1004.94
2023-04-15T02:34:14.845Z,1004.89
2023-04-15T02:35:14.835Z,1004.94
2023-04-15T02:36:14.811Z,1004.90
2023-04-15T02:37:14.820Z,1004.89
2023-04-15T02:38:14.796Z,1004.91
2023-04-15T02:39:14.774Z,1004.88
2023-04-15T02:40:14.759Z,1004.90
2023-04-15T02:41:14.761Z,1004.94
2023-04-15T02:42:14.764Z,1004.90
2023-04-15T02:43:14.720Z,1004.88
2023-04-15T02:44:14.700Z,1004.90
2023-04-15T02:45:14.702Z,1004.89
2023-04-15T02:46:14.998Z,1004.88
2023-04-15T02:47:14.663Z,1004.89
2023-04-15T02:48:14.673Z,1004.93
2023-04-15T02:49:14.649Z,1004.95
2023-04-15T02:50:14.624Z,1004.91
2023-04-15T02:51:14.611Z,1004.98
2023-04-15T02:52:14.590Z,1004.94
2023-04-15T02:53:14.644Z,1004.97
2023-04-15T02:54:14.572Z,1004.95
2023-04-15T02:55:14.562Z,1004.97
2023-04-15T02:56:14.538Z,1005.04
2023-04-15T02:57:14.581Z,1005.02
2023-04-15T02:58:14.514Z,1005.03
2023-04-15T02:59:14.509Z,1005.04
2023-04-15T03:00:14.498Z,1005.06
2023-04-15T03:01:14.530Z,1005.06
2023-04-15T03:02:14.532Z,1005.02
2023-04-15T03:03:14.616Z,1005.07
2023-04-15T03:04:14.625Z,1005.04
2023-04-15T03:05:14.420Z,1005.08
2023-04-15T03:06:14.411Z,1005.07
2023-04-15T03:07:14.420Z,1005.10
2023-04-15T03:08:14.388Z,1005.11
2023-04-15T03:09:14.441Z,1005.14
2023-04-15T03:10:14.355Z,1005.15
2023-04-15T03:11:14.349Z,1005.16
2023-04-15T03:12:14.334Z,1005.16
2023-04-15T03:13:14.325Z,1005.14
2023-04-15T03:14:14.309Z,1005.16
2023-04-15T03:15:14.303Z,1005.15
2023-04-15T03:16:14.389Z,1005.16
2023-04-15T03:17:14.280Z,1005.13
2023-04-15T03:18:14.247Z,1005.15
2023-04-15T03:19:14.246Z,1005.13
2023-04-15T03:20:14.250Z,1005.15
2023-04-15T03:21:14.210Z,1005.15
2023-04-15T03:22:14.210Z,1005.16
2023-04-15T03:23:14.199Z,1005.16
2023-04-15T03:24:14.175Z,1005.14
2023-04-15T03:25:14.188Z,1005.18
2023-04-15T03:26:14.140Z,1005.14
2023-04-15T03:27:14.169Z,1005.13
2023-04-15T03:28:14.124Z,1005.11
2023-04-15T03:29:14.114Z,1005.16
2023-04-15T03:30:14.091Z,1005.14
2023-04-15T03:31:14.136Z,1005.15
2023-04-15T03:32:14.065Z,1005.17
2023-04-15T03:33:14.062Z,1005.14
2023-04-15T03:34:14.042Z,1005.17
2023-04-15T03:35:14.035Z,1005.15
2023-04-15T03:36:14.040Z,1005.14
2023-04-15T03:37:14.006Z,1005.13
2023-04-15T03:38:13.989Z,1005.12
2023-04-15T03:39:13.981Z,1005.16
2023-04-15T03:40:13.973Z,1005.17
2023-04-15T03:41:13.976Z,1005.18
2023-04-15T03:42:13.934Z,1005.23
2023-04-15T03:43:13.922Z,1005.24
2023-04-15T03:44:13.913Z,1005.23
2023-04-15T03:45:13.906Z,1005.26
2023-04-15T03:46:13.966Z,1005.27
2023-04-15T03:47:13.908Z,1005.28
2023-04-15T03:48:17.865Z,1005.25
2023-04-15T03:49:13.843Z,1005.25
2023-04-15T03:50:13.836Z,1005.27
2023-04-15T03:51:13.835Z,1005.29
2023-04-15T03:52:13.812Z,1005.27
2023-04-15T03:53:13.791Z,1005.28
2023-04-15T03:54:13.783Z,1005.29
2023-04-15T03:55:13.764Z,1005.38
2023-04-15T03:56:13.789Z,1005.43
2023-04-15T03:57:13.851Z,1005.45
2023-04-15T03:58:13.724Z,1005.44
2023-04-15T03:59:13.780Z,1005.50
2023-04-15T04:00:13.703Z,1005.52
2023-04-15T04:01:13.699Z,1005.45
2023-04-15T04:02:13.785Z,1005.46
2023-04-15T04:03:13.856Z,1005.52
2023-04-15T04:04:13.726Z,1005.48
2023-04-15T04:05:13.635Z,1005.47
2023-04-15T04:06:13.649Z,1005.56
2023-04-15T04:07:13.600Z,1005.56
2023-04-15T04:08:13.592Z,1005.59
2023-04-15T04:09:13.600Z,1005.61
2023-04-15T04:10:13.572Z,1005.60
2023-04-15T04:11:13.569Z,1005.62
2023-04-15T04:12:13.541Z,1005.66
2023-04-15T04:13:13.523Z,1005.60
2023-04-15T04:14:13.518Z,1005.60
2023-04-15T04:15:13.509Z,1005.61
2023-04-15T04:16:13.558Z,1005.57
2023-04-15T04:17:13.691Z,1005.62
2023-04-15T04:18:13.476Z,1005.63
2023-04-15T04:19:13.468Z,1005.59
2023-04-15T04:20:13.454Z,1005.64
2023-04-15T04:21:13.433Z,1005.62
2023-04-15T04:22:13.413Z,1005.62
2023-04-15T04:23:13.395Z,1005.61
2023-04-15T04:24:13.388Z,1005.63
2023-04-15T04:25:13.391Z,1005.62
2023-04-15T04:26:13.393Z,1005.65
2023-04-15T04:27:13.355Z,1005.61
2023-04-15T04:28:13.340Z,1005.63
2023-04-15T04:29:13.319Z,1005.62
2023-04-15T04:30:13.310Z,1005.67
2023-04-15T04:31:13.316Z,1005.72
2023-04-15T04:32:13.352Z,1005.74
2023-04-15T04:33:13.264Z,1005.65
2023-04-15T04:34:13.258Z,1005.71
2023-04-15T04:35:13.240Z,1005.69
2023-04-15T04:36:13.231Z,1005.69
2023-04-15T04:37:13.202Z,1005.75
2023-04-15T04:38:13.191Z,1005.73
2023-04-15T04:39:13.169Z,1005.80
2023-04-15T04:40:13.170Z,1005.81
2023-04-15T04:41:13.162Z,1005.81
2023-04-15T04:42:13.145Z,1005.82
2023-04-15T04:43:13.139Z,1005.81
2023-04-15T04:44:13.124Z,1005.76
2023-04-15T04:45:13.107Z,1005.85
2023-04-15T04:46:13.175Z,1005.84
2023-04-15T04:47:13.067Z,1005.79
2023-04-15T04:48:13.075Z,1005.86
2023-04-15T04:49:13.059Z,1005.89
2023-04-15T04:50:13.046Z,1005.87
2023-04-15T04:51:13.038Z,1005.89
2023-04-15T04:52:13.074Z,1005.92
2023-04-15T04:53:13.012Z,1005.87
2023-04-15T04:54:13.001Z,1005.90
2023-04-15T04:55:12.987Z,1005.89
2023-04-15T04:56:12.989Z,1005.98
2023-04-15T04:57:12.951Z,1005.94
2023-04-15T04:58:12.930Z,1005.95
2023-04-15T04:59:12.928Z,1005.89
2023-04-15T05:00:12.902Z,1005.98
2023-04-15T05:01:13.014Z,1005.94
2023-04-15T05:02:12.952Z,1006.01
2023-04-15T05:03:13.046Z,1005.97
2023-04-15T05:04:12.984Z,1005.99
2023-04-15T05:05:12.894Z,1005.97
2023-04-15T05:06:13.045Z,1005.99
2023-04-15T05:07:12.920Z,1006.02
2023-04-15T05:08:12.898Z,1006.02
2023-04-15T05:09:12.882Z,1006.07
2023-04-15T05:10:12.787Z,1006.03
2023-04-15T05:11:12.773Z,1006.04
2023-04-15T05:12:12.757Z,1006.02
2023-04-15T05:13:12.731Z,1006.04
2023-04-15T05:14:12.724Z,1006.04
2023-04-15T05:15:12.704Z,1006.08
2023-04-15T05:16:12.816Z,1006.12
2023-04-15T05:17:12.680Z,1006.10
2023-04-15T05:18:12.677Z,1006.14
2023-04-15T05:19:12.682Z,1006.14
2023-04-15T05:20:12.655Z,1006.08
2023-04-15T05:21:12.640Z,1006.12
2023-04-15T05:22:12.626Z,1006.14
2023-04-15T05:23:12.604Z,1006.26
2023-04-15T05:24:12.603Z,1006.25
2023-04-15T05:25:12.581Z,1006.19
2023-04-15T05:26:12.583Z,1006.14
2023-04-15T05:27:12.548Z,1006.23
2023-04-15T05:28:12.550Z,1006.22
2023-04-15T05:29:12.541Z,1006.23
2023-04-15T05:30:13.560Z,1006.21
2023-04-15T05:31:12.640Z,1006.26
2023-04-15T05:32:12.486Z,1006.23
2023-04-15T05:33:12.490Z,1006.27
2023-04-15T05:34:12.467Z,1006.29
2023-04-15T05:35:12.442Z,1006.27
2023-04-15T05:36:12.457Z,1006.32
2023-04-15T05:37:12.417Z,1006.33
2023-04-15T05:38:12.409Z,1006.33
2023-04-15T05:39:12.398Z,1006.33
2023-04-15T05:40:12.389Z,1006.31
2023-04-15T05:41:12.418Z,1006.31
2023-04-15T05:42:12.460Z,1006.31
2023-04-15T05:43:12.345Z,1006.33
2023-04-15T05:44:12.329Z,1006.34
2023-04-15T05:45:12.320Z,1006.33
2023-04-15T05:46:12.362Z,1006.32
2023-04-15T05:47:12.274Z,1006.40
2023-04-15T05:48:12.292Z,1006.38
2023-04-15T05:49:12.255Z,1006.37
2023-04-15T05:50:12.282Z,1006.38
2023-04-15T05:51:12.234Z,1006.38
2023-04-15T05:52:12.227Z,1006.42
2023-04-15T05:53:12.206Z,1006.46
2023-04-15T05:54:12.197Z,1006.43
2023-04-15T05:55:12.215Z,1006.43
2023-04-15T05:56:12.182Z,1006.42
2023-04-15T05:57:12.157Z,1006.42
2023-04-15T05:58:12.154Z,1006.44
2023-04-15T05:59:12.280Z,1006.42
2023-04-15T06:00:12.136Z,1006.44
2023-04-15T06:01:12.094Z,1006.46
2023-04-15T06:02:12.184Z,1006.50
2023-04-15T06:03:12.159Z,1006.49
2023-04-15T06:04:12.197Z,1006.47
2023-04-15T06:05:12.067Z,1006.53
2023-04-15T06:06:12.039Z,1006.50
2023-04-15T06:07:12.021Z,1006.51
2023-04-15T06:08:12.018Z,1006.52
2023-04-15T06:09:12.006Z,1006.53
2023-04-15T06:10:12.012Z,1006.54
2023-04-15T06:11:11.969Z,1006.59
2023-04-15T06:12:11.990Z,1006.61
2023-04-15T06:13:11.960Z,1006.65
2023-04-15T06:14:11.930Z,1006.66
2023-04-15T06:15:11.987Z,1006.71
2023-04-15T06:16:11.964Z,1006.66
2023-04-15T06:17:11.886Z,1006.71
2023-04-15T06:18:11.879Z,1006.73
2023-04-15T06:19:11.869Z,1006.76
2023-04-15T06:20:11.873Z,1006.75
2023-04-15T06:21:11.861Z,1006.81
2023-04-15T06:22:11.830Z,1006.72
2023-04-15T06:23:11.814Z,1006.78
2023-04-15T06:24:11.803Z,1006.81
2023-04-15T06:25:11.784Z,1006.79
2023-04-15T06:26:11.796Z,1006.83
2023-04-15T06:27:11.764Z,1006.89
2023-04-15T06:28:11.748Z,1006.89
2023-04-15T06:29:11.730Z,1006.93
2023-04-15T06:30:11.726Z,1006.89
2023-04-15T06:31:11.733Z,1006.88
2023-04-15T06:32:11.706Z,1006.89
2023-04-15T06:33:11.682Z,1006.96
2023-04-15T06:34:11.673Z,1006.90
2023-04-15T06:35:11.835Z,1006.93
2023-04-15T06:36:11.648Z,1006.98
2023-04-15T06:37:11.618Z,1006.99
2023-04-15T06:38:11.618Z,1007.01
2023-04-15T06:39:11.604Z,1006.97
2023-04-15T06:40:11.611Z,1006.94
2023-04-15T06:41:11.568Z,1007.00
2023-04-15T06:42:11.570Z,1007.00
2023-04-15T06:43:11.540Z,1006.98
2023-04-15T06:44:11.528Z,1007.00
2023-04-15T06:45:11.537Z,1007.00
2023-04-15T06:46:11.572Z,1007.06
2023-04-15T06:47:11.488Z,1007.04
2023-04-15T06:48:11.478Z,1007.03
2023-04-15T06:49:11.470Z,1007.10
2023-04-15T06:50:11.479Z,1007.08
2023-04-15T06:51:11.443Z,1007.06
2023-04-15T06:52:11.450Z,1007.04
2023-04-15T06:53:11.410Z,1007.08
2023-04-15T06:54:11.402Z,1007.07
2023-04-15T06:55:11.424Z,1007.05
2023-04-15T06:56:11.384Z,1007.06
2023-04-15T06:57:11.347Z,1007.05
2023-04-15T06:58:11.350Z,1007.02
2023-04-15T06:59:11.335Z,1007.07
2023-04-15T07:00:11.339Z,1007.05
2023-04-15T07:01:11.326Z,1007.08
2023-04-15T07:02:11.385Z,1007.10
2023-04-15T07:03:11.345Z,1007.12
2023-04-15T07:04:11.290Z,1007.13
2023-04-15T07:05:11.270Z,1007.07
2023-04-15T07:06:11.253Z,1007.11
2023-04-15T07:07:11.216Z,1007.10
2023-04-15T07:08:11.221Z,1007.08
2023-04-15T07:09:11.198Z,1007.09
2023-04-15T07:10:11.221Z,1007.12
2023-04-15T07:11:11.170Z,1007.13
2023-04-15T07:12:11.164Z,1007.14
2023-04-15T07:13:11.140Z,1007.16
2023-04-15T07:14:11.135Z,1007.13
2023-04-15T07:15:11.144Z,1007.19
2023-04-15T07:16:11.142Z,1007.22
2023-04-15T07:17:11.203Z,1007.20
2023-04-15T07:18:11.089Z,1007.25
2023-04-15T07:19:11.092Z,1007.21
2023-04-15T07:20:11.087Z,1007.24
2023-04-15T07:21:11.045Z,1007.25
2023-04-15T07:22:11.025Z,1007.29
2023-04-15T07:23:11.012Z,1007.29
2023-04-15T07:24:11.001Z,1007.32
2023-04-15T07:25:10.980Z,1007.34
2023-04-15T07:26:11.001Z,1007.36
2023-04-15T07:27:10.963Z,1007.37
2023-04-15T07:28:10.965Z,1007.38
2023-04-15T07:29:10.930Z,1007.40
2023-04-15T07:30:10.928Z,1007.38
2023-04-15T07:31:11.088Z,1007.41
2023-04-15T07:32:10.920Z,1007.40
2023-04-15T07:33:10.879Z,1007.37
2023-04-15T07:34:10.869Z,1007.37
2023-04-15T07:35:10.894Z,1007.40
2023-04-15T07:36:10.842Z,1007.41
2023-04-15T07:37:10.809Z,1007.48
2023-04-15T07:38:10.815Z,1007.42
2023-04-15T07:39:10.796Z,1007.49
2023-04-15T07:40:10.813Z,1007.51
2023-04-15T07:41:10.780Z,1007.51
2023-04-15T07:42:10.770Z,1007.51
2023-04-15T07:43:10.759Z,1007.48
2023-04-15T07:44:10.739Z,1007.50
2023-04-15T07:45:10.736Z,1007.54
2023-04-15T07:46:10.755Z,1007.55
2023-04-15T07:47:10.702Z,1007.58
2023-04-15T07:48:10.678Z,1007.59
2023-04-15T07:49:10.666Z,1007.56
2023-04-15T07:50:10.669Z,1007.64
2023-04-15T07:51:10.652Z,1007.61
2023-04-15T07:52:10.632Z,1007.68
2023-04-15T07:53:10.612Z,1007.67
2023-04-15T07:54:10.612Z,1007.65
2023-04-15T07:55:10.616Z,1007.69
2023-04-15T07:56:10.583Z,1007.65
2023-04-15T07:57:10.549Z,1007.71
2023-04-15T07:58:10.550Z,1007.71
2023-04-15T07:59:10.534Z,1007.67
2023-04-15T08:00:10.552Z,1007.70
2023-04-15T08:01:10.545Z,1007.68
2023-04-15T08:02:10.554Z,1007.70
2023-04-15T08:03:10.602Z,1007.77
2023-04-15T08:04:10.857Z,1007.70
2023-04-15T08:05:10.509Z,1007.74
2023-04-15T08:06:10.436Z,1007.74
2023-04-15T08:07:10.448Z,1007.73
2023-04-15T08:08:10.451Z,1007.79
2023-04-15T08:09:10.501Z,1007.77
2023-04-15T08:10:10.476Z,1007.86
2023-04-15T08:11:10.373Z,1007.82
2023-04-15T08:12:10.354Z,1007.85
2023-04-15T08:13:10.379Z,1007.89
2023-04-15T08:14:10.319Z,1007.82
2023-04-15T08:15:10.348Z,1007.84
2023-04-15T08:16:10.339Z,1007.83
2023-04-15T08:17:10.294Z,1007.85
2023-04-15T08:18:10.274Z,1007.84
2023-04-15T08:19:10.272Z,1007.86
2023-04-15T08:20:10.270Z,1007.90
2023-04-15T08:21:10.243Z,1007.93
2023-04-15T08:22:11.223Z,1007.89
2023-04-15T08:23:11.213Z,1007.87
2023-04-15T08:24:10.194Z,1007.97
2023-04-15T08:25:10.201Z,1007.90
2023-04-15T08:26:10.172Z,1007.96
2023-04-15T08:27:10.169Z,1007.95
2023-04-15T08:28:10.140Z,1007.93
2023-04-15T08:29:10.131Z,1007.94
2023-04-15T08:30:10.140Z,1007.92
2023-04-15T08:31:10.176Z,1007.99
2023-04-15T08:32:10.095Z,1007.98
2023-04-15T08:33:10.098Z,1007.98
2023-04-15T08:34:10.060Z,1007.99
2023-04-15T08:35:10.071Z,1008.03
2023-04-15T08:36:10.060Z,1008.00
2023-04-15T08:37:11.469Z,1008.03
2023-04-15T08:38:10.013Z,1008.03
2023-04-15T08:39:09.996Z,1008.04
2023-04-15T08:40:10.011Z,1008.07
2023-04-15T08:41:09.977Z,1008.07
2023-04-15T08:42:09.964Z,1008.12
2023-04-15T08:43:09.949Z,1008.11
2023-04-15T08:44:09.922Z,1008.10
2023-04-15T08:45:09.946Z,1008.02
2023-04-15T08:46:09.905Z,1008.09
2023-04-15T08:47:09.916Z,1008.12
2023-04-15T08:48:09.874Z,1008.10
2023-04-15T08:49:09.866Z,1008.09
2023-04-15T08:50:09.883Z,1008.07
2023-04-15T08:51:09.873Z,1008.11
2023-04-15T08:52:09.832Z,1008.10
2023-04-15T08:53:09.821Z,1008.14
2023-04-15T08:54:09.797Z,1008.09
2023-04-15T08:55:09.806Z,1008.12
2023-04-15T08:56:09.793Z,1008.10
2023-04-15T08:57:09.767Z,1008.12
2023-04-15T08:58:09.745Z,1008.15
2023-04-15T08:59:09.767Z,1008.15
2023-04-15T09:00:09.745Z,1008.08
2023-04-15T09:01:09.781Z,1008.12
2023-04-15T09:02:09.749Z,1008.17
2023-04-15T09:03:09.773Z,1008.15
2023-04-15T09:04:09.698Z,1008.12
2023-04-15T09:05:09.678Z,1008.23
2023-04-15T09:06:09.640Z,1008.17
2023-04-15T09:07:09.632Z,1008.22
2023-04-15T09:08:09.646Z,1008.23
2023-04-15T09:09:09.603Z,1008.23
2023-04-15T09:10:09.602Z,1008.19
2023-04-15T09:11:09.595Z,1008.22
2023-04-15T09:12:09.552Z,1008.24
2023-04-15T09:13:09.578Z,1008.24
2023-04-15T09:14:09.532Z,1008.22
2023-04-15T09:15:09.542Z,1008.23
2023-04-15T09:16:09.541Z,1008.20
2023-04-15T09:17:09.493Z,1008.16
2023-04-15T09:18:09.475Z,1008.18
2023-04-15T09:19:09.475Z,1008.19
2023-04-15T09:20:09.470Z,1008.23
2023-04-15T09:21:09.447Z,1008.19
2023-04-15T09:22:09.427Z,1008.27
2023-04-15T09:23:09.424Z,1008.30
2023-04-15T09:24:09.406Z,1008.31
2023-04-15T09:25:09.402Z,1008.31
2023-04-15T09:26:09.371Z,1008.27
2023-04-15T09:27:09.369Z,1008.28
2023-04-15T09:28:09.346Z,1008.32
2023-04-15T09:29:09.384Z,1008.34
2023-04-15T09:30:09.347Z,1008.35
2023-04-15T09:31:09.387Z,1008.40
2023-04-15T09:32:09.277Z,1008.41
2023-04-15T09:33:09.284Z,1008.42
2023-04-15T09:34:09.272Z,1008.38
2023-04-15T09:35:09.277Z,1008.38
2023-04-15T09:36:09.232Z,1008.39
2023-04-15T09:37:09.251Z,1008.38
2023-04-15T09:38:09.202Z,1008.36
2023-04-15T09:39:09.203Z,1008.38
2023-04-15T09:40:09.237Z,1008.39
2023-04-15T09:41:09.176Z,1008.40
2023-04-15T09:42:09.163Z,1008.40
2023-04-15T09:43:09.248Z,1008.35
2023-04-15T09:44:09.128Z,1008.40
2023-04-15T09:45:09.136Z,1008.32
2023-04-15T09:46:09.151Z,1008.38
2023-04-15T09:47:09.093Z,1008.44
2023-04-15T09:48:09.107Z,1008.45
2023-04-15T09:49:09.073Z,1008.47
2023-04-15T09:50:09.081Z,1008.49
2023-04-15T09:51:09.036Z,1008.51
2023-04-15T09:52:09.023Z,1008.50
2023-04-15T09:53:09.013Z,1008.46
2023-04-15T09:54:08.993Z,1008.54
2023-04-15T09:55:08.989Z,1008.52
2023-04-15T09:56:09.004Z,1008.52
2023-04-15T09:57:08.990Z,1008.54
2023-04-15T09:58:08.950Z,1008.51
2023-04-15T09:59:08.931Z,1008.51
2023-04-15T10:00:08.938Z,1008.54
2023-04-15T10:01:08.950Z,1008.57
2023-04-15T10:02:09.040Z,1008.62
2023-04-15T10:03:09.044Z,1008.64
2023-04-15T10:04:08.973Z,1008.64
2023-04-15T10:05:08.877Z,1008.68
2023-04-15T10:06:08.990Z,1008.75
2023-04-15T10:07:08.832Z,1008.68
2023-04-15T10:08:08.812Z,1008.67
2023-04-15T10:09:08.812Z,1008.68
2023-04-15T10:10:08.824Z,1008.73
2023-04-15T10:11:08.780Z,1008.73
2023-04-15T10:12:08.759Z,1008.72
2023-04-15T10:13:08.741Z,1008.67
2023-04-15T10:14:08.722Z,1008.64
2023-04-15T10:15:08.756Z,1008.75
2023-04-15T10:16:08.751Z,1008.72
2023-04-15T10:17:08.693Z,1008.68
2023-04-15T10:18:08.718Z,1008.69
2023-04-15T10:19:08.674Z,1008.71
2023-04-15T10:20:08.660Z,1008.73
2023-04-15T10:21:08.654Z,1008.79
2023-04-15T10:22:08.626Z,1008.74
2023-04-15T10:23:10.429Z,1008.76
2023-04-15T10:24:08.605Z,1008.77
2023-04-15T10:25:08.587Z,1008.79
2023-04-15T10:26:08.594Z,1008.81
2023-04-15T10:27:08.553Z,1008.80
2023-04-15T10:28:08.543Z,1008.81
2023-04-15T10:29:08.556Z,1008.80
2023-04-15T10:30:08.525Z,1008.86
2023-04-15T10:31:08.541Z,1008.89
2023-04-15T10:32:08.497Z,1008.88
2023-04-15T10:33:08.489Z,1008.94
2023-04-15T10:34:08.478Z,1008.95
2023-04-15T10:35:08.479Z,1008.91
2023-04-15T10:36:08.513Z,1008.97
2023-04-15T10:37:08.426Z,1008.91
2023-04-15T10:38:08.406Z,1008.97
2023-04-15T10:39:08.409Z,1008.95
2023-04-15T10:40:08.440Z,1008.97
2023-04-15T10:41:08.383Z,1008.97
2023-04-15T10:42:08.409Z,1008.91
2023-04-15T10:43:08.368Z,1008.87
2023-04-15T10:44:08.338Z,1008.88
2023-04-15T10:45:08.350Z,1008.89
2023-04-15T10:46:08.353Z,1008.90
2023-04-15T10:47:08.287Z,1008.88
2023-04-15T10:48:08.326Z,1008.87
2023-04-15T10:49:08.272Z,1008.87
2023-04-15T10:50:08.274Z,1008.87
2023-04-15T10:51:08.244Z,1008.97
2023-04-15T10:52:08.221Z,1009.07
2023-04-15T10:53:08.218Z,1008.95
2023-04-15T10:54:08.232Z,1008.91
2023-04-15T10:55:08.217Z,1009.01
2023-04-15T10:56:08.179Z,1008.92
2023-04-15T10:57:08.160Z,1008.89
2023-04-15T10:58:08.143Z,1008.93
2023-04-15T10:59:08.135Z,1008.96
2023-04-15T11:00:08.115Z,1008.99
2023-04-15T11:01:08.116Z,1008.97
2023-04-15T11:02:08.197Z,1009.00
2023-04-15T11:03:08.235Z,1009.02
2023-04-15T11:04:08.215Z,1009.00
2023-04-15T11:05:08.072Z,1009.02
2023-04-15T11:06:08.029Z,1009.02
2023-04-15T11:07:08.018Z,1009.04
2023-04-15T11:08:08.008Z,1009.06
2023-04-15T11:09:07.989Z,1008.98
2023-04-15T11:10:08.005Z,1009.00
2023-04-15T11:11:07.968Z,1009.00
2023-04-15T11:12:07.952Z,1009.08
2023-04-15T11:13:07.945Z,1009.06
2023-04-15T11:14:07.922Z,1009.04
2023-04-15T11:15:07.937Z,1009.09
2023-04-15T11:16:07.963Z,1009.09
2023-04-15T11:17:07.891Z,1009.06
2023-04-15T11:18:07.971Z,1009.06
2023-04-15T11:19:07.881Z,1009.16
2023-04-15T11:20:07.896Z,1009.10
2023-04-15T11:21:07.841Z,1009.18
2023-04-15T11:22:07.823Z,1009.18
2023-04-15T11:23:13.908Z,1009.17
2023-04-15T11:24:09.056Z,1009.22
2023-04-15T11:25:07.812Z,1009.19
2023-04-15T11:26:07.762Z,1009.25
2023-04-15T11:27:07.764Z,1009.25
2023-04-15T11:28:07.770Z,1009.30
2023-04-15T11:29:07.738Z,1009.25
2023-04-15T11:30:07.750Z,1009.28
2023-04-15T11:31:07.706Z,1009.30
2023-04-15T11:32:07.734Z,1009.28
2023-04-15T11:33:07.677Z,1009.33
2023-04-15T11:34:07.711Z,1009.34
2023-04-15T11:35:07.683Z,1009.39
2023-04-15T11:36:07.652Z,1009.34
2023-04-15T11:37:07.643Z,1009.35
2023-04-15T11:38:07.606Z,1009.34
2023-04-15T11:39:07.601Z,1009.41
2023-04-15T11:40:07.616Z,1009.45
2023-04-15T11:41:07.578Z,1009.45
2023-04-15T11:42:07.559Z,1009.50
2023-04-15T11:43:07.546Z,1009.50
2023-04-15T11:44:07.529Z,1009.41
2023-04-15T11:45:07.540Z,1009.40
2023-04-15T11:46:07.524Z,1009.45
2023-04-15T11:47:07.488Z,1009.40
2023-04-15T11:48:07.478Z,1009.49
2023-04-15T11:49:07.470Z,1009.57
2023-04-15T11:50:07.478Z,1009.52
2023-04-15T11:51:07.440Z,1009.53
2023-04-15T11:52:07.418Z,1009.53
2023-04-15T11:53:08.630Z,1009.51
2023-04-15T11:54:07.569Z,1009.52
2023-04-15T11:55:07.415Z,1009.56
2023-04-15T11:56:07.364Z,1009.49
2023-04-15T11:57:07.360Z,1009.46
2023-04-15T11:58:07.349Z,1009.46
2023-04-15T11:59:07.344Z,1009.51
2023-04-15T12:00:07.342Z,1009.56
2023-04-15T12:01:07.317Z,1009.58
2023-04-15T12:02:07.340Z,1009.64
2023-04-15T12:03:07.454Z,1009.63
2023-04-15T12:04:07.516Z,1009.70
2023-04-15T12:05:07.297Z,1009.73